sensor_id;sensor_type;location;lat;lon;timestamp;temperature;humidity
64939;DHT22;51453;47.738;7.420;2022-10-31T00:02:10;13.30;99.90
64939;DHT22;51453;47.738;7.420;2022-10-31T00:04:36;13.30;99.90
64939;DHT22;51453;47.738;7.420;2022-10-31T00:07:02;13.30;99.90
64939;DHT22;51453;47.738;7.420;2022-10-31T00:09:27;13.30;99.90
64939;DHT22;51453;47.738;7.420;2022-10-31T00:11:53;13.30;99.90
64939;DHT22;51453;47.738;7.420;2022-10-31T00:14:19;13.30;99.90
64939;DHT22;51453;47.738;7.420;2022-10-31T00:16:44;13.30;99.90
64939;DHT22;51453;47.738;7.420;2022-10-31T00:19:10;13.40;99.90
64939;DHT22;51453;47.738;7.420;2022-10-31T00:21:35;13.30;99.90
64939;DHT22;51453;47.738;7.420;2022-10-31T00:24:01;13.30;99.90
64939;DHT22;51453;47.738;7.420;2022-10-31T00:26:28;13.40;99.90
64939;DHT22;51453;47.738;7.420;2022-10-31T00:28:54;13.40;99.90
64939;DHT22;51453;47.738;7.420;2022-10-31T00:31:20;13.40;99.90
64939;DHT22;51453;47.738;7.420;2022-10-31T00:33:45;13.40;99.90
64939;DHT22;51453;47.738;7.420;2022-10-31T00:36:14;13.40;99.90
64939;DHT22;51453;47.738;7.420;2022-10-31T00:38:40;13.40;99.90
64939;DHT22;51453;47.738;7.420;2022-10-31T00:41:06;13.40;99.90
64939;DHT22;51453;47.738;7.420;2022-10-31T00:43:32;13.50;99.90
64939;DHT22;51453;47.738;7.420;2022-10-31T00:45:58;13.40;99.90
64939;DHT22;51453;47.738;7.420;2022-10-31T00:48:23;13.30;99.90
64939;DHT22;51453;47.738;7.420;2022-10-31T00:50:49;13.40;99.90
64939;DHT22;51453;47.738;7.420;2022-10-31T00:53:14;13.30;99.90
64939;DHT22;51453;47.738;7.420;2022-10-31T00:55:40;13.30;99.90
64939;DHT22;51453;47.738;7.420;2022-10-31T00:58:06;13.30;99.90
64939;DHT22;51453;47.738;7.420;2022-10-31T01:00:31;13.30;99.90
64939;DHT22;51453;47.738;7.420;2022-10-31T01:02:57;13.30;99.90
64939;DHT22;51453;47.738;7.420;2022-10-31T01:05:23;13.30;99.90
64939;DHT22;51453;47.738;7.420;2022-10-31T01:07:48;13.20;99.90
64939;DHT22;51453;47.738;7.420;2022-10-31T01:10:14;13.20;99.90
64939;DHT22;51453;47.738;7.420;2022-10-31T01:12:42;13.20;99.90
64939;DHT22;51453;47.738;7.420;2022-10-31T01:15:10;13.20;99.90
64939;DHT22;51453;47.738;7.420;2022-10-31T01:17:36;13.20;99.90
64939;DHT22;51453;47.738;7.420;2022-10-31T01:20:03;13.10;99.90
64939;DHT22;51453;47.738;7.420;2022-10-31T01:22:29;13.10;99.90
64939;DHT22;51453;47.738;7.420;2022-10-31T01:24:55;13.10;99.90
64939;DHT22;51453;47.738;7.420;2022-10-31T01:27:21;13.00;99.90
64939;DHT22;51453;47.738;7.420;2022-10-31T01:29:46;13.00;99.90
64939;DHT22;51453;47.738;7.420;2022-10-31T01:32:12;13.00;99.90
64939;DHT22;51453;47.738;7.420;2022-10-31T01:34:37;12.90;99.90
64939;DHT22;51453;47.738;7.420;2022-10-31T01:37:03;12.90;99.90
64939;DHT22;51453;47.738;7.420;2022-10-31T01:39:29;12.90;99.90
64939;DHT22;51453;47.738;7.420;2022-10-31T01:41:54;12.90;99.90
64939;DHT22;51453;47.738;7.420;2022-10-31T01:47:37;12.80;99.90
64939;DHT22;51453;47.738;7.420;2022-10-31T01:49:49;12.80;99.90
64939;DHT22;51453;47.738;7.420;2022-10-31T01:52:25;12.80;99.90
64939;DHT22;51453;47.738;7.420;2022-10-31T01:55:03;12.70;99.90
64939;DHT22;51453;47.738;7.420;2022-10-31T01:57:32;12.70;99.90
64939;DHT22;51453;47.738;7.420;2022-10-31T02:00:03;12.70;99.90
64939;DHT22;51453;47.738;7.420;2022-10-31T02:02:30;12.70;99.90
64939;DHT22;51453;47.738;7.420;2022-10-31T02:04:59;12.80;99.90
64939;DHT22;51453;47.738;7.420;2022-10-31T02:07:38;12.70;99.90
64939;DHT22;51453;47.738;7.420;2022-10-31T02:10:05;12.70;99.90
64939;DHT22;51453;47.738;7.420;2022-10-31T02:12:31;12.70;99.90
64939;DHT22;51453;47.738;7.420;2022-10-31T02:14:59;12.70;99.90
64939;DHT22;51453;47.738;7.420;2022-10-31T02:17:25;12.70;99.90
64939;DHT22;51453;47.738;7.420;2022-10-31T02:25:22;12.70;99.90
64939;DHT22;51453;47.738;7.420;2022-10-31T02:38:51;12.70;99.90
64939;DHT22;51453;47.738;7.420;2022-10-31T02:44:39;12.70;99.90
64939;DHT22;51453;47.738;7.420;2022-10-31T02:47:13;12.70;99.90
64939;DHT22;51453;47.738;7.420;2022-10-31T02:49:50;12.70;99.90
64939;DHT22;51453;47.738;7.420;2022-10-31T02:54:46;12.70;99.90
64939;DHT22;51453;47.738;7.420;2022-10-31T02:57:13;12.70;99.90
64939;DHT22;51453;47.738;7.420;2022-10-31T02:59:49;12.70;99.90
64939;DHT22;51453;47.738;7.420;2022-10-31T03:13:14;12.70;99.90
64939;DHT22;51453;47.738;7.420;2022-10-31T03:15:50;12.80;99.90
64939;DHT22;51453;47.738;7.420;2022-10-31T03:18:53;12.70;99.90
64939;DHT22;51453;47.738;7.420;2022-10-31T03:21:20;12.70;99.90
64939;DHT22;51453;47.738;7.420;2022-10-31T03:23:50;12.70;99.90
64939;DHT22;51453;47.738;7.420;2022-10-31T03:26:17;12.70;99.90
64939;DHT22;51453;47.738;7.420;2022-10-31T03:28:51;12.70;99.90
64939;DHT22;51453;47.738;7.420;2022-10-31T03:31:19;12.60;99.90
64939;DHT22;51453;47.738;7.420;2022-10-31T03:33:49;12.60;99.90
64939;DHT22;51453;47.738;7.420;2022-10-31T03:36:16;12.60;99.90
64939;DHT22;51453;47.738;7.420;2022-10-31T03:38:44;12.60;99.90
64939;DHT22;51453;47.738;7.420;2022-10-31T03:41:14;12.50;99.90
64939;DHT22;51453;47.738;7.420;2022-10-31T03:43:54;12.50;99.90
64939;DHT22;51453;47.738;7.420;2022-10-31T03:46:21;12.50;99.90
64939;DHT22;51453;47.738;7.420;2022-10-31T03:48:47;12.40;99.90
64939;DHT22;51453;47.738;7.420;2022-10-31T03:56:53;12.30;99.90
64939;DHT22;51453;47.738;7.420;2022-10-31T03:59:28;12.30;99.90
64939;DHT22;51453;47.738;7.420;2022-10-31T04:01:57;12.30;99.90
64939;DHT22;51453;47.738;7.420;2022-10-31T04:04:27;12.30;99.90
64939;DHT22;51453;47.738;7.420;2022-10-31T04:06:56;12.20;99.90
64939;DHT22;51453;47.738;7.420;2022-10-31T04:09:25;12.30;99.90
64939;DHT22;51453;47.738;7.420;2022-10-31T04:11:54;12.20;99.90
64939;DHT22;51453;47.738;7.420;2022-10-31T04:14:22;12.20;99.90
64939;DHT22;51453;47.738;7.420;2022-10-31T04:16:49;12.20;99.90
64939;DHT22;51453;47.738;7.420;2022-10-31T04:19:15;12.10;99.90
64939;DHT22;51453;47.738;7.420;2022-10-31T04:21:41;12.10;99.90
64939;DHT22;51453;47.738;7.420;2022-10-31T04:24:10;12.10;99.90
64939;DHT22;51453;47.738;7.420;2022-10-31T04:26:35;12.00;99.90
64939;DHT22;51453;47.738;7.420;2022-10-31T04:29:01;12.00;99.90
64939;DHT22;51453;47.738;7.420;2022-10-31T04:31:27;12.00;99.90
64939;DHT22;51453;47.738;7.420;2022-10-31T04:33:52;11.90;99.90
64939;DHT22;51453;47.738;7.420;2022-10-31T04:36:18;11.90;99.90
64939;DHT22;51453;47.738;7.420;2022-10-31T04:38:44;11.90;99.90
64939;DHT22;51453;47.738;7.420;2022-10-31T04:41:09;11.90;99.90
64939;DHT22;51453;47.738;7.420;2022-10-31T04:43:35;11.90;99.90
64939;DHT22;51453;47.738;7.420;2022-10-31T04:46:01;11.80;99.90
64939;DHT22;51453;47.738;7.420;2022-10-31T04:48:26;11.80;99.90
64939;DHT22;51453;47.738;7.420;2022-10-31T04:50:52;11.70;99.90
64939;DHT22;51453;47.738;7.420;2022-10-31T04:53:17;11.70;99.90
64939;DHT22;51453;47.738;7.420;2022-10-31T04:55:43;11.70;99.90
64939;DHT22;51453;47.738;7.420;2022-10-31T04:58:09;11.60;99.90
64939;DHT22;51453;47.738;7.420;2022-10-31T05:00:34;11.60;99.90
64939;DHT22;51453;47.738;7.420;2022-10-31T05:03:00;11.60;99.90
64939;DHT22;51453;47.738;7.420;2022-10-31T05:05:29;11.60;99.90
64939;DHT22;51453;47.738;7.420;2022-10-31T05:07:54;11.60;99.90
64939;DHT22;51453;47.738;7.420;2022-10-31T05:10:23;11.50;99.90
64939;DHT22;51453;47.738;7.420;2022-10-31T05:12:57;11.50;99.90
64939;DHT22;51453;47.738;7.420;2022-10-31T05:15:25;11.50;99.90
64939;DHT22;51453;47.738;7.420;2022-10-31T05:17:52;11.50;99.90
64939;DHT22;51453;47.738;7.420;2022-10-31T05:20:20;11.50;99.90
64939;DHT22;51453;47.738;7.420;2022-10-31T05:22:51;11.50;99.90
64939;DHT22;51453;47.738;7.420;2022-10-31T05:25:17;11.50;99.90
64939;DHT22;51453;47.738;7.420;2022-10-31T05:27:44;11.50;99.90
64939;DHT22;51453;47.738;7.420;2022-10-31T05:30:13;11.50;99.90
64939;DHT22;51453;47.738;7.420;2022-10-31T05:32:45;11.50;99.90
64939;DHT22;51453;47.738;7.420;2022-10-31T05:35:14;11.40;99.90
64939;DHT22;51453;47.738;7.420;2022-10-31T05:37:40;11.40;99.90
64939;DHT22;51453;47.738;7.420;2022-10-31T05:40:08;11.40;99.90
64939;DHT22;51453;47.738;7.420;2022-10-31T05:42:35;11.40;99.90
64939;DHT22;51453;47.738;7.420;2022-10-31T05:45:01;11.30;99.90
64939;DHT22;51453;47.738;7.420;2022-10-31T05:47:26;11.30;99.90
64939;DHT22;51453;47.738;7.420;2022-10-31T05:49:52;11.30;99.90
64939;DHT22;51453;47.738;7.420;2022-10-31T05:52:18;11.20;99.90
64939;DHT22;51453;47.738;7.420;2022-10-31T05:54:44;11.30;99.90
64939;DHT22;51453;47.738;7.420;2022-10-31T05:57:10;11.20;99.90
64939;DHT22;51453;47.738;7.420;2022-10-31T05:59:35;11.20;99.90
64939;DHT22;51453;47.738;7.420;2022-10-31T06:02:01;11.20;99.90
64939;DHT22;51453;47.738;7.420;2022-10-31T06:04:26;11.30;99.90
64939;DHT22;51453;47.738;7.420;2022-10-31T06:06:52;11.30;99.90
64939;DHT22;51453;47.738;7.420;2022-10-31T06:09:18;11.20;99.90
64939;DHT22;51453;47.738;7.420;2022-10-31T06:11:43;11.20;99.90
64939;DHT22;51453;47.738;7.420;2022-10-31T06:14:09;11.20;99.90
64939;DHT22;51453;47.738;7.420;2022-10-31T06:16:35;11.30;99.90
64939;DHT22;51453;47.738;7.420;2022-10-31T06:19:00;11.30;99.90
64939;DHT22;51453;47.738;7.420;2022-10-31T06:21:27;11.30;99.90
64939;DHT22;51453;47.738;7.420;2022-10-31T06:23:52;11.30;99.90
64939;DHT22;51453;47.738;7.420;2022-10-31T06:26:18;11.30;99.90
64939;DHT22;51453;47.738;7.420;2022-10-31T06:28:44;11.30;99.90
64939;DHT22;51453;47.738;7.420;2022-10-31T06:31:10;11.30;99.90
64939;DHT22;51453;47.738;7.420;2022-10-31T06:33:35;11.40;99.90
64939;DHT22;51453;47.738;7.420;2022-10-31T06:36:02;11.40;99.90
64939;DHT22;51453;47.738;7.420;2022-10-31T06:38:28;11.40;99.90
64939;DHT22;51453;47.738;7.420;2022-10-31T06:40:54;11.40;99.90
64939;DHT22;51453;47.738;7.420;2022-10-31T06:43:21;11.50;99.90
64939;DHT22;51453;47.738;7.420;2022-10-31T06:45:47;11.50;99.90
64939;DHT22;51453;47.738;7.420;2022-10-31T06:48:13;11.50;99.90
64939;DHT22;51453;47.738;7.420;2022-10-31T06:50:38;11.60;99.90
64939;DHT22;51453;47.738;7.420;2022-10-31T06:53:04;11.60;99.90
64939;DHT22;51453;47.738;7.420;2022-10-31T06:55:30;11.70;99.90
64939;DHT22;51453;47.738;7.420;2022-10-31T06:57:58;11.70;99.90
64939;DHT22;51453;47.738;7.420;2022-10-31T07:00:25;11.80;99.90
64939;DHT22;51453;47.738;7.420;2022-10-31T07:03:01;11.90;99.90
64939;DHT22;51453;47.738;7.420;2022-10-31T07:05:28;11.90;99.90
64939;DHT22;51453;47.738;7.420;2022-10-31T07:07:59;12.00;99.90
64939;DHT22;51453;47.738;7.420;2022-10-31T07:10:26;12.10;99.90
64939;DHT22;51453;47.738;7.420;2022-10-31T07:12:56;12.10;99.90
64939;DHT22;51453;47.738;7.420;2022-10-31T07:15:23;12.20;99.90
64939;DHT22;51453;47.738;7.420;2022-10-31T07:17:49;12.20;99.90
64939;DHT22;51453;47.738;7.420;2022-10-31T07:20:15;12.20;99.90
64939;DHT22;51453;47.738;7.420;2022-10-31T07:22:40;12.30;99.90
64939;DHT22;51453;47.738;7.420;2022-10-31T07:25:06;12.30;99.90
64939;DHT22;51453;47.738;7.420;2022-10-31T07:27:39;12.30;99.90
64939;DHT22;51453;47.738;7.420;2022-10-31T07:30:06;12.30;99.90
64939;DHT22;51453;47.738;7.420;2022-10-31T07:32:42;12.40;99.90
64939;DHT22;51453;47.738;7.420;2022-10-31T07:35:09;12.40;99.90
64939;DHT22;51453;47.738;7.420;2022-10-31T07:37:35;12.40;99.90
64939;DHT22;51453;47.738;7.420;2022-10-31T07:40:02;12.50;99.90
64939;DHT22;51453;47.738;7.420;2022-10-31T07:42:28;12.50;99.90
64939;DHT22;51453;47.738;7.420;2022-10-31T07:44:54;12.50;99.90
64939;DHT22;51453;47.738;7.420;2022-10-31T07:47:19;12.50;99.90
64939;DHT22;51453;47.738;7.420;2022-10-31T07:49:45;12.60;99.90
64939;DHT22;51453;47.738;7.420;2022-10-31T07:52:11;12.70;99.90
64939;DHT22;51453;47.738;7.420;2022-10-31T07:54:36;12.70;99.90
64939;DHT22;51453;47.738;7.420;2022-10-31T07:57:02;12.80;99.90
64939;DHT22;51453;47.738;7.420;2022-10-31T07:59:28;12.80;99.90
64939;DHT22;51453;47.738;7.420;2022-10-31T08:01:53;12.90;99.90
64939;DHT22;51453;47.738;7.420;2022-10-31T08:04:19;12.80;99.90
64939;DHT22;51453;47.738;7.420;2022-10-31T08:06:44;12.90;99.90
64939;DHT22;51453;47.738;7.420;2022-10-31T08:09:10;12.90;99.90
64939;DHT22;51453;47.738;7.420;2022-10-31T08:11:36;13.00;99.90
64939;DHT22;51453;47.738;7.420;2022-10-31T08:14:01;13.00;99.90
64939;DHT22;51453;47.738;7.420;2022-10-31T08:16:27;13.10;99.90
64939;DHT22;51453;47.738;7.420;2022-10-31T08:18:53;13.20;99.90
64939;DHT22;51453;47.738;7.420;2022-10-31T08:21:21;13.20;99.90
64939;DHT22;51453;47.738;7.420;2022-10-31T08:23:46;13.20;99.90
64939;DHT22;51453;47.738;7.420;2022-10-31T08:26:12;13.30;99.90
64939;DHT22;51453;47.738;7.420;2022-10-31T08:28:38;13.40;99.90
64939;DHT22;51453;47.738;7.420;2022-10-31T08:31:03;13.50;99.90
64939;DHT22;51453;47.738;7.420;2022-10-31T08:33:30;13.50;99.90
64939;DHT22;51453;47.738;7.420;2022-10-31T08:35:58;13.50;99.90
64939;DHT22;51453;47.738;7.420;2022-10-31T08:38:23;13.60;99.90
64939;DHT22;51453;47.738;7.420;2022-10-31T08:40:49;13.70;99.90
64939;DHT22;51453;47.738;7.420;2022-10-31T08:43:16;13.80;99.90
64939;DHT22;51453;47.738;7.420;2022-10-31T08:45:43;13.90;99.90
64939;DHT22;51453;47.738;7.420;2022-10-31T08:48:12;13.90;99.90
64939;DHT22;51453;47.738;7.420;2022-10-31T08:50:38;14.00;99.90
64939;DHT22;51453;47.738;7.420;2022-10-31T08:53:09;14.10;99.90
64939;DHT22;51453;47.738;7.420;2022-10-31T08:55:37;14.10;99.90
64939;DHT22;51453;47.738;7.420;2022-10-31T08:58:09;14.10;99.90
64939;DHT22;51453;47.738;7.420;2022-10-31T09:00:36;14.20;99.90
64939;DHT22;51453;47.738;7.420;2022-10-31T09:03:04;14.30;99.90
64939;DHT22;51453;47.738;7.420;2022-10-31T09:05:31;14.30;99.90
64939;DHT22;51453;47.738;7.420;2022-10-31T09:08:01;14.40;99.90
64939;DHT22;51453;47.738;7.420;2022-10-31T09:10:28;14.50;99.90
64939;DHT22;51453;47.738;7.420;2022-10-31T09:12:58;14.50;99.90
64939;DHT22;51453;47.738;7.420;2022-10-31T09:15:26;14.60;99.90
64939;DHT22;51453;47.738;7.420;2022-10-31T09:17:52;14.70;99.90
64939;DHT22;51453;47.738;7.420;2022-10-31T09:20:18;14.70;99.90
64939;DHT22;51453;47.738;7.420;2022-10-31T09:22:44;14.80;99.90
64939;DHT22;51453;47.738;7.420;2022-10-31T09:25:09;14.80;99.90
64939;DHT22;51453;47.738;7.420;2022-10-31T09:27:35;14.90;99.90
64939;DHT22;51453;47.738;7.420;2022-10-31T09:30:01;14.90;99.90
64939;DHT22;51453;47.738;7.420;2022-10-31T09:32:26;15.00;99.90
64939;DHT22;51453;47.738;7.420;2022-10-31T09:34:52;15.10;99.90
64939;DHT22;51453;47.738;7.420;2022-10-31T09:37:18;15.10;99.90
64939;DHT22;51453;47.738;7.420;2022-10-31T09:39:43;15.20;99.90
64939;DHT22;51453;47.738;7.420;2022-10-31T09:52:29;15.40;99.90
64939;DHT22;51453;47.738;7.420;2022-10-31T09:57:34;15.40;99.90
64939;DHT22;51453;47.738;7.420;2022-10-31T10:00:03;15.40;99.90
64939;DHT22;51453;47.738;7.420;2022-10-31T10:02:44;15.40;99.90
64939;DHT22;51453;47.738;7.420;2022-10-31T10:05:14;15.30;99.90
64939;DHT22;51453;47.738;7.420;2022-10-31T10:12:54;15.30;99.90
64939;DHT22;51453;47.738;7.420;2022-10-31T10:23:49;15.40;99.90
64939;DHT22;51453;47.738;7.420;2022-10-31T10:26:19;15.50;99.90
64939;DHT22;51453;47.738;7.420;2022-10-31T10:31:44;15.70;99.90
64939;DHT22;51453;47.738;7.420;2022-10-31T10:36:46;16.00;99.90
64939;DHT22;51453;47.738;7.420;2022-10-31T10:39:40;16.00;99.90
64939;DHT22;51453;47.738;7.420;2022-10-31T10:42:16;16.00;99.90
64939;DHT22;51453;47.738;7.420;2022-10-31T10:45:17;16.10;99.90
64939;DHT22;51453;47.738;7.420;2022-10-31T10:48:27;16.20;99.90
64939;DHT22;51453;47.738;7.420;2022-10-31T10:50:54;16.30;99.90
64939;DHT22;51453;47.738;7.420;2022-10-31T10:59:16;16.70;99.90
64939;DHT22;51453;47.738;7.420;2022-10-31T11:01:43;16.90;99.90
64939;DHT22;51453;47.738;7.420;2022-10-31T11:04:29;17.10;99.90
64939;DHT22;51453;47.738;7.420;2022-10-31T11:07:13;17.10;99.90
64939;DHT22;51453;47.738;7.420;2022-10-31T11:09:39;17.20;99.90
64939;DHT22;51453;47.738;7.420;2022-10-31T11:14:57;17.40;99.90
64939;DHT22;51453;47.738;7.420;2022-10-31T11:17:30;17.50;99.90
64939;DHT22;51453;47.738;7.420;2022-10-31T11:20:06;17.50;99.90
64939;DHT22;51453;47.738;7.420;2022-10-31T11:22:32;17.70;99.90
64939;DHT22;51453;47.738;7.420;2022-10-31T11:24:58;17.80;99.90
64939;DHT22;51453;47.738;7.420;2022-10-31T11:27:25;18.00;99.90
64939;DHT22;51453;47.738;7.420;2022-10-31T11:29:51;17.90;99.90
64939;DHT22;51453;47.738;7.420;2022-10-31T11:32:27;17.80;99.90
64939;DHT22;51453;47.738;7.420;2022-10-31T11:35:02;17.70;99.90
64939;DHT22;51453;47.738;7.420;2022-10-31T11:37:34;17.60;99.90
64939;DHT22;51453;47.738;7.420;2022-10-31T11:40:05;17.60;99.90
64939;DHT22;51453;47.738;7.420;2022-10-31T11:42:41;17.60;99.90
64939;DHT22;51453;47.738;7.420;2022-10-31T11:47:50;17.80;99.90
64939;DHT22;51453;47.738;7.420;2022-10-31T11:50:37;17.90;99.90
64939;DHT22;51453;47.738;7.420;2022-10-31T11:53:10;17.90;99.90
64939;DHT22;51453;47.738;7.420;2022-10-31T11:55:39;18.00;99.90
64939;DHT22;51453;47.738;7.420;2022-10-31T11:58:23;18.00;99.90
64939;DHT22;51453;47.738;7.420;2022-10-31T12:00:54;18.00;99.90
64939;DHT22;51453;47.738;7.420;2022-10-31T12:06:02;18.20;99.90
64939;DHT22;51453;47.738;7.420;2022-10-31T12:08:31;18.40;99.90
64939;DHT22;51453;47.738;7.420;2022-10-31T12:16:39;18.20;99.90
64939;DHT22;51453;47.738;7.420;2022-10-31T12:22:22;18.60;99.90
64939;DHT22;51453;47.738;7.420;2022-10-31T12:43:34;18.80;99.90
64939;DHT22;51453;47.738;7.420;2022-10-31T12:46:02;19.10;99.90
64939;DHT22;51453;47.738;7.420;2022-10-31T12:56:47;19.50;99.90
64939;DHT22;51453;47.738;7.420;2022-10-31T12:59:43;19.70;99.90
64939;DHT22;51453;47.738;7.420;2022-10-31T13:07:59;19.80;99.90
64939;DHT22;51453;47.738;7.420;2022-10-31T13:10:35;19.80;99.90
64939;DHT22;51453;47.738;7.420;2022-10-31T13:13:07;19.80;99.90
64939;DHT22;51453;47.738;7.420;2022-10-31T13:16:19;19.60;99.90
64939;DHT22;51453;47.738;7.420;2022-10-31T13:18:48;19.60;99.90
64939;DHT22;51453;47.738;7.420;2022-10-31T13:21:23;19.50;99.90
64939;DHT22;51453;47.738;7.420;2022-10-31T13:23:51;19.40;99.90
64939;DHT22;51453;47.738;7.420;2022-10-31T13:27:03;19.50;99.90
64939;DHT22;51453;47.738;7.420;2022-10-31T13:29:33;19.80;99.90
64939;DHT22;51453;47.738;7.420;2022-10-31T13:32:06;20.00;99.90
64939;DHT22;51453;47.738;7.420;2022-10-31T13:34:36;20.20;99.90
64939;DHT22;51453;47.738;7.420;2022-10-31T13:44:37;20.20;99.90
64939;DHT22;51453;47.738;7.420;2022-10-31T13:47:27;20.20;99.90
64939;DHT22;51453;47.738;7.420;2022-10-31T13:52:44;20.20;99.90
64939;DHT22;51453;47.738;7.420;2022-10-31T13:55:41;20.10;99.90
64939;DHT22;51453;47.738;7.420;2022-10-31T13:58:29;19.90;99.90
64939;DHT22;51453;47.738;7.420;2022-10-31T14:01:16;19.90;99.90
64939;DHT22;51453;47.738;7.420;2022-10-31T14:03:46;19.80;99.90
64939;DHT22;51453;47.738;7.420;2022-10-31T14:06:14;19.80;99.90
64939;DHT22;51453;47.738;7.420;2022-10-31T14:08:51;19.90;99.90
64939;DHT22;51453;47.738;7.420;2022-10-31T14:11:24;19.90;99.90
64939;DHT22;51453;47.738;7.420;2022-10-31T14:13:52;19.70;99.90
64939;DHT22;51453;47.738;7.420;2022-10-31T14:16:23;19.60;99.90
64939;DHT22;51453;47.738;7.420;2022-10-31T14:18:57;19.50;99.90
64939;DHT22;51453;47.738;7.420;2022-10-31T14:23:50;19.40;99.90
64939;DHT22;51453;47.738;7.420;2022-10-31T14:28:56;19.30;99.90
64939;DHT22;51453;47.738;7.420;2022-10-31T14:31:37;19.50;99.90
64939;DHT22;51453;47.738;7.420;2022-10-31T14:42:43;19.70;99.90
64939;DHT22;51453;47.738;7.420;2022-10-31T14:50:51;19.50;99.90
64939;DHT22;51453;47.738;7.420;2022-10-31T14:53:22;19.50;99.90
64939;DHT22;51453;47.738;7.420;2022-10-31T14:55:52;19.50;99.90
64939;DHT22;51453;47.738;7.420;2022-10-31T14:58:30;19.40;99.90
64939;DHT22;51453;47.738;7.420;2022-10-31T15:00:59;19.40;99.90
64939;DHT22;51453;47.738;7.420;2022-10-31T15:03:38;19.20;99.90
64939;DHT22;51453;47.738;7.420;2022-10-31T15:06:14;19.00;99.90
64939;DHT22;51453;47.738;7.420;2022-10-31T15:08:48;19.00;99.90
64939;DHT22;51453;47.738;7.420;2022-10-31T15:11:20;18.90;99.90
64939;DHT22;51453;47.738;7.420;2022-10-31T15:13:57;19.00;99.90
64939;DHT22;51453;47.738;7.420;2022-10-31T15:16:38;19.00;99.90
64939;DHT22;51453;47.738;7.420;2022-10-31T15:19:16;18.90;99.90
64939;DHT22;51453;47.738;7.420;2022-10-31T15:21:45;18.80;99.90
64939;DHT22;51453;47.738;7.420;2022-10-31T15:24:13;18.70;99.90
64939;DHT22;51453;47.738;7.420;2022-10-31T15:26:49;18.60;99.90
64939;DHT22;51453;47.738;7.420;2022-10-31T15:29:18;18.50;99.90
64939;DHT22;51453;47.738;7.420;2022-10-31T15:34:21;18.40;99.90
64939;DHT22;51453;47.738;7.420;2022-10-31T15:36:48;18.30;99.90
64939;DHT22;51453;47.738;7.420;2022-10-31T15:39:16;18.10;99.90
64939;DHT22;51453;47.738;7.420;2022-10-31T15:41:51;18.00;99.90
64939;DHT22;51453;47.738;7.420;2022-10-31T15:44:36;17.80;99.90
64939;DHT22;51453;47.738;7.420;2022-10-31T15:47:15;17.60;99.90
64939;DHT22;51453;47.738;7.420;2022-10-31T15:49:49;17.50;99.90
64939;DHT22;51453;47.738;7.420;2022-10-31T15:52:35;17.40;99.90
64939;DHT22;51453;47.738;7.420;2022-10-31T15:55:23;17.10;99.90
64939;DHT22;51453;47.738;7.420;2022-10-31T15:57:57;16.90;99.90
64939;DHT22;51453;47.738;7.420;2022-10-31T16:00:30;16.80;99.90
64939;DHT22;51453;47.738;7.420;2022-10-31T16:03:24;16.70;99.90
64939;DHT22;51453;47.738;7.420;2022-10-31T16:05:52;16.60;99.90
64939;DHT22;51453;47.738;7.420;2022-10-31T16:08:49;16.30;99.90
64939;DHT22;51453;47.738;7.420;2022-10-31T16:11:27;16.20;99.90
64939;DHT22;51453;47.738;7.420;2022-10-31T16:16:22;15.90;99.90
64939;DHT22;51453;47.738;7.420;2022-10-31T16:18:51;15.80;99.90
64939;DHT22;51453;47.738;7.420;2022-10-31T16:21:33;15.60;99.90
64939;DHT22;51453;47.738;7.420;2022-10-31T16:24:15;15.50;99.90
64939;DHT22;51453;47.738;7.420;2022-10-31T16:26:46;15.40;99.90
64939;DHT22;51453;47.738;7.420;2022-10-31T16:29:36;15.30;99.90
64939;DHT22;51453;47.738;7.420;2022-10-31T16:32:03;15.30;99.90
64939;DHT22;51453;47.738;7.420;2022-10-31T16:34:29;15.20;99.90
64939;DHT22;51453;47.738;7.420;2022-10-31T16:36:55;15.00;99.90
64939;DHT22;51453;47.738;7.420;2022-10-31T16:39:20;15.00;99.90
64939;DHT22;51453;47.738;7.420;2022-10-31T16:41:50;15.00;99.90
64939;DHT22;51453;47.738;7.420;2022-10-31T16:44:22;14.80;99.90
64939;DHT22;51453;47.738;7.420;2022-10-31T16:49:27;14.70;99.90
64939;DHT22;51453;47.738;7.420;2022-10-31T16:51:52;14.70;99.90
64939;DHT22;51453;47.738;7.420;2022-10-31T16:54:18;14.70;99.90
64939;DHT22;51453;47.738;7.420;2022-10-31T16:56:44;14.60;99.90
64939;DHT22;51453;47.738;7.420;2022-10-31T16:59:11;14.60;99.90
64939;DHT22;51453;47.738;7.420;2022-10-31T17:01:39;14.50;99.90
64939;DHT22;51453;47.738;7.420;2022-10-31T17:04:05;14.50;99.90
64939;DHT22;51453;47.738;7.420;2022-10-31T17:06:31;14.50;99.90
64939;DHT22;51453;47.738;7.420;2022-10-31T17:08:56;14.50;99.90
64939;DHT22;51453;47.738;7.420;2022-10-31T17:11:23;14.40;99.90
64939;DHT22;51453;47.738;7.420;2022-10-31T17:13:50;14.40;99.90
64939;DHT22;51453;47.738;7.420;2022-10-31T17:16:16;14.40;99.90
64939;DHT22;51453;47.738;7.420;2022-10-31T17:18:42;14.30;99.90
64939;DHT22;51453;47.738;7.420;2022-10-31T17:21:19;14.30;99.90
64939;DHT22;51453;47.738;7.420;2022-10-31T17:23:47;14.20;99.90
64939;DHT22;51453;47.738;7.420;2022-10-31T17:26:13;14.20;99.90
64939;DHT22;51453;47.738;7.420;2022-10-31T17:28:39;14.20;99.90
64939;DHT22;51453;47.738;7.420;2022-10-31T17:31:05;14.20;99.90
64939;DHT22;51453;47.738;7.420;2022-10-31T17:33:31;14.30;99.90
64939;DHT22;51453;47.738;7.420;2022-10-31T17:35:56;14.20;99.90
64939;DHT22;51453;47.738;7.420;2022-10-31T17:38:22;14.20;99.90
64939;DHT22;51453;47.738;7.420;2022-10-31T17:40:48;14.10;99.90
64939;DHT22;51453;47.738;7.420;2022-10-31T17:43:14;14.00;99.90
64939;DHT22;51453;47.738;7.420;2022-10-31T17:45:40;14.00;99.90
64939;DHT22;51453;47.738;7.420;2022-10-31T17:48:08;13.90;99.90
64939;DHT22;51453;47.738;7.420;2022-10-31T17:50:34;13.90;99.90
64939;DHT22;51453;47.738;7.420;2022-10-31T17:52:59;13.80;99.90
64939;DHT22;51453;47.738;7.420;2022-10-31T17:55:26;13.80;99.90
64939;DHT22;51453;47.738;7.420;2022-10-31T17:57:51;13.80;99.90
64939;DHT22;51453;47.738;7.420;2022-10-31T18:00:19;13.80;99.90
64939;DHT22;51453;47.738;7.420;2022-10-31T18:02:50;13.80;99.90
64939;DHT22;51453;47.738;7.420;2022-10-31T18:05:16;13.80;99.90
64939;DHT22;51453;47.738;7.420;2022-10-31T18:07:41;13.80;99.90
64939;DHT22;51453;47.738;7.420;2022-10-31T18:10:08;13.80;99.90
64939;DHT22;51453;47.738;7.420;2022-10-31T18:12:37;13.80;99.90
64939;DHT22;51453;47.738;7.420;2022-10-31T18:15:03;13.80;99.90
64939;DHT22;51453;47.738;7.420;2022-10-31T18:17:29;13.70;99.90
64939;DHT22;51453;47.738;7.420;2022-10-31T18:19:55;13.70;99.90
64939;DHT22;51453;47.738;7.420;2022-10-31T18:22:20;13.70;99.90
64939;DHT22;51453;47.738;7.420;2022-10-31T18:24:46;13.80;99.90
64939;DHT22;51453;47.738;7.420;2022-10-31T18:27:11;13.70;99.90
64939;DHT22;51453;47.738;7.420;2022-10-31T18:29:37;13.80;99.90
64939;DHT22;51453;47.738;7.420;2022-10-31T18:32:03;13.70;99.90